To NAV CANADA Home Page Login to a new session Search on AWWS site Feedback and Comments Disclaimer Vers la page française équivalente Tips FAQ What's new on the site To the Forecasts and Observations / NOTAM section To "File a Flight Plan" website Publications and other links Update of the User's profile FIC Telephone Numbers My Weather Data Folder Route Weather Data Regional Weather Data Local Weather Data To the Forecasts and Observations / NOTAM section
Request Generated 02/11/2016 at 21:06:12 UTC . Weather information available at that time is displayed.

METAR/TAF

MONCTON/GREATER MONCTON INTL/NB    

METAR CYQM 112100Z 02005KT 1 1/4SM -SN SCT012 OVC030 M05/M07 A2952
RMK SF4SC4 /S02/ SLP004=
SPECI CYQM 112046Z 03005KT 1 1/4SM -SN SCT012 OVC030 M05/M07 A2952
RMK SF4SC4 SLP003=
METAR CYQM 112000Z 04005KT 1 1/4SM -SN OVC013 M05/M07 A2951 RMK SF8
/S01/ SLP001=
SPECI CYQM 111948Z 04006KT 1 1/4SM -SN OVC012 M05/M07 A2951 RMK SF8
SLP000=
SPECI CYQM 111915Z 04005KT 2 1/2SM -SN BKN010 OVC020 M04/M06 A2951
RMK SF6SC2 SLP998=
METAR CYQM 111900Z 04005KT 4SM -SN BKN010 OVC022 M04/M07 A2950 RMK
SF7SC1 SLP996=

TAF CYQM 111738Z 1118/1218 36008KT 2SM -SHSN OVC009 TEMPO 1118/1204
5SM -SN OVC015 PROB30 1119/1123 3/4SM -SHSN OVC007
FM120400 27008KT 6SM -SN OVC020 TEMPO 1204/1208 3SM -SN BKN009
OVC020
FM120800 27008KT P6SM BKN025 TEMPO 1208/1212 5SM -SHSN BKN015
OVC025
FM121200 27010G20KT P6SM SCT025
RMK NXT FCST BY 120000Z=
Your time UTC time
Weather data provided by Environment Canada and NAV CANADA